Time;durP1;ratioP1;P1;durP2;ratioP2;P2;SDS_P1;SDS_P2;PMS_P1;PMS_P2;Temp;Humidity;BMP_temperature;BMP_pressure;BME280_temperature;BME280_humidity;BME280_pressure;Samples;Min_cycle;Max_cycle;Signal;HPM_P1;HPM_P2
2024/02/23 00:00:58;;;;;;;2.65;0.88;;;;;;;3.76;100.00;68800.81;5051957;28;20044;-50
2024/02/23 00:03:27;;;;;;;2.53;1.00;;;;;;;3.77;100.00;68801.97;5052221;28;20055;-51
2024/02/23 00:05:56;;;;;;;5.00;0.93;;;;;;;3.76;100.00;68800.81;5051178;28;20148;-52
2024/02/23 00:08:24;;;;;;;2.22;0.75;;;;;;;3.80;100.00;68805.44;5052061;28;20037;-52
2024/02/23 00:10:52;;;;;;;4.05;0.85;;;;;;;3.79;100.00;68804.31;5050532;28;20059;-51
2024/02/23 00:13:21;;;;;;;3.95;0.80;;;;;;;3.81;100.00;68811.19;5051392;28;20045;-51
2024/02/23 00:15:49;;;;;;;2.42;0.90;;;;;;;3.80;100.00;68804.88;5051165;28;20084;-51
2024/02/23 00:18:17;;;;;;;2.72;1.08;;;;;;;3.82;100.00;68805.19;5054470;28;20036;-51
2024/02/23 00:20:45;;;;;;;2.95;0.98;;;;;;;3.84;100.00;68809.50;5050218;28;20068;-48
2024/02/23 00:23:15;;;;;;;2.97;0.82;;;;;;;3.87;100.00;68810.41;5051110;28;20056;-49
2024/02/23 00:25:44;;;;;;;4.30;1.10;;;;;;;3.94;100.00;68823.13;5048959;28;20055;-51
2024/02/23 00:28:12;;;;;;;5.95;0.90;;;;;;;3.92;100.00;68818.22;5050679;28;20488;-51
2024/02/23 00:30:40;;;;;;;4.30;1.10;;;;;;;3.89;100.00;68815.91;5051458;28;20098;-48
2024/02/23 00:33:09;;;;;;;5.10;0.98;;;;;;;3.97;100.00;68829.19;5051436;28;20073;-50
2024/02/23 00:35:38;;;;;;;5.15;1.10;;;;;;;3.93;100.00;68821.94;5051625;28;20095;-53
2024/02/23 00:38:07;;;;;;;2.97;1.10;;;;;;;3.84;100.00;68810.09;5049408;28;20049;-52
2024/02/23 00:40:37;;;;;;;5.25;1.40;;;;;;;3.86;100.00;68815.00;5053113;28;20055;-49
2024/02/23 00:43:05;;;;;;;5.25;1.20;;;;;;;3.82;100.00;68807.78;5054549;28;20048;-51
2024/02/23 00:45:33;;;;;;;5.88;1.30;;;;;;;3.79;100.00;68801.72;5054073;28;20539;-50
2024/02/23 00:48:02;;;;;;;5.05;1.40;;;;;;;3.84;100.00;68807.50;5050755;28;20103;-53
2024/02/23 00:50:30;;;;;;;5.03;1.60;;;;;;;3.81;100.00;68806.63;5051126;28;20172;-51
2024/02/23 00:52:58;;;;;;;5.15;1.50;;;;;;;3.72;100.00;68796.16;5053488;28;20060;-61
2024/02/23 00:55:26;;;;;;;3.33;1.23;;;;;;;3.75;100.00;68797.06;5053491;28;20041;-61
2024/02/23 00:57:56;;;;;;;5.38;1.25;;;;;;;3.68;100.00;68791.53;5050152;28;20072;-50
2024/02/23 01:00:24;;;;;;;2.33;0.80;;;;;;;3.62;100.00;68782.00;5049382;28;20453;-49
2024/02/23 01:02:52;;;;;;;4.63;1.60;;;;;;;3.64;100.00;68784.28;5050431;28;20049;-50
2024/02/23 01:05:20;;;;;;;5.32;2.00;;;;;;;3.72;100.00;68798.75;5050794;28;20643;-52
2024/02/23 01:07:48;;;;;;;5.80;1.88;;;;;;;3.71;100.00;68797.59;5049919;28;20098;-50
2024/02/23 01:10:17;;;;;;;6.03;1.85;;;;;;;3.73;100.00;68797.91;5050598;28;20044;-52
2024/02/23 01:12:47;;;;;;;6.07;2.22;;;;;;;3.78;100.00;68803.13;5048928;28;20076;-51
2024/02/23 01:15:17;;;;;;;6.47;2.28;;;;;;;3.79;100.00;68804.31;5049663;28;20057;-51
2024/02/23 01:17:45;;;;;;;6.93;2.80;;;;;;;3.80;100.00;68808.03;5050821;28;20048;-52
2024/02/23 01:20:14;;;;;;;7.25;3.25;;;;;;;3.87;100.00;68813.00;5050658;28;20045;-49
2024/02/23 01:22:42;;;;;;;10.65;3.85;;;;;;;3.84;100.00;68810.09;5049884;28;20050;-52
2024/02/23 01:25:10;;;;;;;7.38;3.50;;;;;;;3.83;100.00;68808.94;5050292;28;20053;-51
2024/02/23 01:27:39;;;;;;;6.20;2.90;;;;;;;3.85;100.00;68810.69;5048857;28;20524;-49
2024/02/23 01:30:08;;;;;;;7.60;3.70;;;;;;;3.86;100.00;68814.44;5050181;28;20045;-51
2024/02/23 01:32:38;;;;;;;10.38;3.63;;;;;;;3.93;100.00;68825.13;5050799;28;20115;-51
2024/02/23 01:35:08;;;;;;;7.60;3.47;;;;;;;3.91;100.00;68817.63;5051129;28;20099;-50
2024/02/23 01:37:37;;;;;;;9.95;4.10;;;;;;;3.94;100.00;68823.13;5049351;28;20044;-51
2024/02/23 01:40:06;;;;;;;7.80;3.22;;;;;;;3.91;100.00;68819.66;5048476;28;20114;-52
2024/02/23 01:42:34;;;;;;;9.15;3.60;;;;;;;3.89;100.00;68815.91;5048658;28;20144;-48
2024/02/23 01:45:03;;;;;;;9.18;2.95;;;;;;;3.87;100.00;68813.00;5051130;28;20543;-51
2024/02/23 01:47:31;;;;;;;7.38;2.55;;;;;;;3.84;100.00;68806.94;5053257;28;20080;-50
2024/02/23 01:50:01;;;;;;;5.38;2.38;;;;;;;3.83;100.00;68808.94;5050223;28;20527;-49
2024/02/23 01:52:30;;;;;;;10.00;2.20;;;;;;;3.80;100.00;68805.44;5049497;28;20099;-49
2024/02/23 01:55:00;;;;;;;7.07;2.55;;;;;;;3.80;100.00;68804.88;5049252;28;20041;-50
2024/02/23 01:57:29;;;;;;;11.25;2.30;;;;;;;3.77;100.00;68801.41;5047553;28;20045;-49
2024/02/23 02:00:19;;;;;;;4.85;1.85;;;;;;;3.73;100.00;68800.47;5052434;28;20087;-49
2024/02/23 02:02:48;;;;;;;6.40;1.55;;;;;;;3.72;100.00;68801.91;5052872;28;20041;-50
2024/02/23 02:05:18;;;;;;;4.60;1.63;;;;;;;3.73;100.00;68797.31;5052347;28;20095;-52
2024/02/23 02:07:53;;;;;;;13.70;2.03;;;;;;;3.67;100.00;68790.94;5049293;28;20049;-50
2024/02/23 02:10:22;;;;;;;4.78;1.38;;;;;;;3.66;100.00;68791.78;5052030;28;20041;-50
2024/02/23 02:12:50;;;;;;;7.38;1.58;;;;;;;3.65;100.00;68793.22;5052950;28;20045;-49
2024/02/23 02:15:18;;;;;;;3.85;1.30;;;;;;;3.66;100.00;68789.22;5049149;28;20061;-48
2024/02/23 02:17:46;;;;;;;4.22;1.40;;;;;;;3.64;100.00;68790.06;5050578;28;20048;-49
2024/02/23 02:20:15;;;;;;;3.10;1.17;;;;;;;3.61;100.00;68783.97;5052878;28;20089;-49
2024/02/23 02:22:44;;;;;;;6.20;1.10;;;;;;;3.58;100.00;68782.50;5053069;28;20124;-50
2024/02/23 02:25:15;;;;;;;5.05;1.20;;;;;;;3.59;100.00;68784.25;5053012;28;20049;-52
2024/02/23 02:27:45;;;;;;;8.02;1.30;;;;;;;3.55;100.00;68779.59;5052694;28;20047;-61
2024/02/23 02:30:14;;;;;;;6.55;1.52;;;;;;;3.59;100.00;68781.66;5049704;28;20626;-48
2024/02/23 02:32:42;;;;;;;5.22;1.10;;;;;;;3.54;100.00;68779.03;5047956;28;20075;-47
2024/02/23 02:35:12;;;;;;;10.55;1.42;;;;;;;3.54;100.00;68773.88;5048751;28;20049;-52
2024/02/23 02:37:40;;;;;;;5.50;1.27;;;;;;;3.57;100.00;68778.75;5050817;28;20033;-52
2024/02/23 02:40:10;;;;;;;5.60;1.00;;;;;;;3.53;100.00;68777.88;5052094;28;20583;-53
2024/02/23 02:42:39;;;;;;;6.00;1.33;;;;;;;3.54;100.00;68776.44;5047956;28;20045;-49
2024/02/23 02:45:08;;;;;;;5.53;1.33;;;;;;;3.53;100.00;68774.69;5047784;28;20048;-51
2024/02/23 02:47:36;;;;;;;8.50;1.45;;;;;;;3.55;100.00;68774.44;5051065;28;20041;-49
2024/02/23 02:50:06;;;;;;;8.75;1.23;;;;;;;3.61;100.00;68783.41;5052752;28;20540;-50
2024/02/23 02:52:34;;;;;;;7.00;1.63;;;;;;;3.60;100.00;68785.41;5048820;28;20056;-49
2024/02/23 02:55:03;;;;;;;4.03;1.05;;;;;;;3.63;100.00;68785.72;5048475;28;20055;-49
2024/02/23 02:57:32;;;;;;;6.00;1.40;;;;;;;3.65;100.00;68786.03;5048228;28;20565;-52
2024/02/23 03:00:00;;;;;;;5.10;1.30;;;;;;;3.68;100.00;68794.09;5050084;28;20128;-50
2024/02/23 03:02:31;;;;;;;9.07;1.27;;;;;;;3.68;100.00;68794.09;5050280;28;20045;-48
2024/02/23 03:04:59;;;;;;;5.63;1.20;;;;;;;3.65;100.00;68788.03;5047216;28;20143;-51
2024/02/23 03:07:27;;;;;;;6.15;1.88;;;;;;;3.62;100.00;68789.72;5050520;28;20114;-51
2024/02/23 03:09:55;;;;;;;7.82;1.30;;;;;;;3.65;100.00;68790.63;5047386;28;20067;-50
2024/02/23 03:12:23;;;;;;;8.23;1.70;;;;;;;3.65;100.00;68790.63;5047584;28;20060;-51
2024/02/23 03:14:53;;;;;;;4.57;1.30;;;;;;;3.62;100.00;68787.72;5050412;28;20064;-48
2024/02/23 03:17:21;;;;;;;3.97;1.20;;;;;;;3.60;100.00;68782.25;5053157;28;20388;-51
2024/02/23 03:19:50;;;;;;;7.45;1.70;;;;;;;3.59;100.00;68781.09;5053265;28;20059;-51
2024/02/23 03:22:18;;;;;;;8.00;1.30;;;;;;;3.57;100.00;68783.91;5054768;28;20052;-51
2024/02/23 03:24:46;;;;;;;5.43;1.42;;;;;;;3.59;100.00;68778.50;5052927;28;20516;-53
2024/02/23 03:27:16;;;;;;;3.72;1.08;;;;;;;3.56;100.00;68775.59;5051388;28;20074;-52
2024/02/23 03:29:44;;;;;;;7.63;1.40;;;;;;;3.55;100.00;68782.75;5052345;28;20056;-49
2024/02/23 03:32:14;;;;;;;4.80;1.20;;;;;;;3.58;100.00;68779.94;5052506;28;20454;-48
2024/02/23 03:34:43;;;;;;;6.30;1.30;;;;;;;3.55;100.00;68777.59;5053262;28;20049;-48
2024/02/23 03:37:11;;;;;;;6.45;1.10;;;;;;;3.55;100.00;68779.59;5054219;28;20036;-53
2024/02/23 03:39:39;;;;;;;6.65;1.55;;;;;;;3.60;100.00;68784.81;5052820;28;20069;-53
2024/02/23 03:42:07;;;;;;;5.60;1.55;;;;;;;3.53;100.00;68775.28;5050576;28;20049;-51
2024/02/23 03:44:35;;;;;;;6.18;1.20;;;;;;;3.50;100.00;68769.22;5050907;28;20510;-52
2024/02/23 03:47:04;;;;;;;7.30;1.10;;;;;;;3.52;100.00;68773.56;5055269;28;20041;-51
2024/02/23 03:49:33;;;;;;;5.60;1.48;;;;;;;3.51;100.00;68775.53;5054456;28;20041;-47
2024/02/23 03:52:01;;;;;;;5.88;1.15;;;;;;;3.54;100.00;68776.44;5051761;28;20464;-48
2024/02/23 03:54:31;;;;;;;6.90;1.85;;;;;;;3.54;100.00;68776.44;5051637;28;20788;-50
2024/02/23 03:56:59;;;;;;;6.45;1.48;;;;;;;3.51;100.00;68775.53;5049826;28;20055;-50
2024/02/23 03:59:27;;;;;;;6.38;1.30;;;;;;;3.51;100.00;68775.53;5050546;28;20049;-50
2024/02/23 04:01:55;;;;;;;5.10;1.45;;;;;;;3.49;100.00;68770.06;5052362;28;20045;-52
2024/02/23 04:04:23;;;;;;;5.93;1.45;;;;;;;3.49;100.00;68770.06;5055171;28;20404;-51
2024/02/23 04:06:54;;;;;;;5.72;2.00;;;;;;;3.51;100.00;68772.38;5054107;28;20057;-47
2024/02/23 04:09:23;;;;;;;8.00;2.22;;;;;;;3.50;100.00;68771.22;5052211;28;20537;-52
2024/02/23 04:11:51;;;;;;;5.35;1.60;;;;;;;3.46;100.00;68762.00;5050331;28;20049;-51
2024/02/23 04:14:20;;;;;;;5.32;1.30;;;;;;;3.48;100.00;68774.06;5051679;28;20045;-51
2024/02/23 04:16:48;;;;;;;4.88;1.60;;;;;;;3.47;100.00;68770.31;5051315;28;20531;-49
2024/02/23 04:19:16;;;;;;;7.13;1.83;;;;;;;3.48;100.00;68769.47;5050308;28;20516;-49
2024/02/23 04:21:44;;;;;;;6.22;1.30;;;;;;;3.46;100.00;68767.16;5054001;28;20059;-51
2024/02/23 04:24:16;;;;;;;6.22;1.30;;;;;;;3.45;100.00;68766.00;5054544;28;20045;-50
2024/02/23 04:26:44;;;;;;;3.65;1.10;;;;;;;3.44;100.00;68764.84;5053607;28;20048;-52
2024/02/23 04:29:12;;;;;;;7.72;1.58;;;;;;;3.42;100.00;68759.94;5051244;28;20037;-51
2024/02/23 04:31:40;;;;;;;4.32;1.30;;;;;;;3.41;100.00;68763.94;5052939;28;20073;-48
2024/02/23 04:34:08;;;;;;;7.05;1.30;;;;;;;3.40;100.00;68765.34;5052472;28;20047;-50
2024/02/23 04:36:37;;;;;;;5.90;1.20;;;;;;;3.42;100.00;68762.50;5051051;28;20049;-49
2024/02/23 04:39:05;;;;;;;5.05;1.27;;;;;;;3.41;100.00;68763.34;5050721;28;20041;-48
2024/02/23 04:41:34;;;;;;;5.32;1.40;;;;;;;3.38;100.00;68760.44;5050076;28;20559;-49
2024/02/23 04:44:03;;;;;;;7.80;1.83;;;;;;;3.38;100.00;68755.28;5052573;28;20052;-48
2024/02/23 04:46:34;;;;;;;7.32;1.30;;;;;;;3.41;100.00;68761.38;5052182;28;20120;-52
2024/02/23 04:49:02;;;;;;;4.47;1.15;;;;;;;3.38;100.00;68763.03;5050977;28;20043;-51
2024/02/23 04:51:30;;;;;;;14.77;1.85;;;;;;;3.39;100.00;68759.03;5052990;28;20148;-51
2024/02/23 04:53:59;;;;;;;7.38;1.50;;;;;;;3.38;100.00;68757.88;5050537;28;20120;-49
2024/02/23 04:56:27;;;;;;;5.72;1.48;;;;;;;3.38;100.00;68760.44;5048556;28;20053;-50
2024/02/23 04:58:57;;;;;;;5.63;1.92;;;;;;;3.35;100.00;68756.97;5050481;28;20049;-50
2024/02/23 05:01:25;;;;;;;7.82;1.63;;;;;;;3.36;100.00;68758.72;5053554;28;20041;-53
2024/02/23 05:03:53;;;;;;;6.20;1.52;;;;;;;3.40;100.00;68762.78;5051038;28;20037;-51
2024/02/23 05:06:22;;;;;;;6.10;1.52;;;;;;;3.36;100.00;68756.13;5049857;28;20049;-49
2024/02/23 05:08:53;;;;;;;5.53;1.38;;;;;;;3.39;100.00;68764.19;5050261;28;20041;-48
2024/02/23 05:11:21;;;;;;;7.60;1.58;;;;;;;3.40;100.00;68762.22;5049583;28;20056;-52
2024/02/23 05:13:49;;;;;;;6.03;1.55;;;;;;;3.46;100.00;68767.16;5052837;28;20087;-48
2024/02/23 05:16:22;;;;;;;8.70;1.55;;;;;;;3.50;100.00;68773.78;5053595;28;20133;-49
2024/02/23 05:18:50;;;;;;;6.78;1.35;;;;;;;3.53;100.00;68777.28;5050729;28;20049;-48
2024/02/23 05:21:18;;;;;;;7.80;2.15;;;;;;;3.54;100.00;68779.03;5051816;28;20040;-51
2024/02/23 05:23:47;;;;;;;7.65;1.65;;;;;;;3.53;100.00;68777.28;5052036;28;20148;-51
2024/02/23 05:26:15;;;;;;;4.40;1.30;;;;;;;3.56;100.00;68780.78;5049027;28;20053;-51
2024/02/23 05:28:43;;;;;;;8.52;1.40;;;;;;;3.59;100.00;68779.09;5052202;28;20433;-50
2024/02/23 05:31:12;;;;;;;5.95;1.27;;;;;;;3.62;100.00;68789.72;5048739;28;20068;-51
2024/02/23 05:33:41;;;;;;;7.78;1.38;;;;;;;3.65;100.00;68785.47;5049891;28;20455;-52
2024/02/23 05:36:12;;;;;;;4.13;1.38;;;;;;;3.67;100.00;68790.38;5048852;28;20076;-52
2024/02/23 05:38:40;;;;;;;8.73;1.70;;;;;;;3.70;100.00;68799.00;5050410;28;20041;-51
2024/02/23 05:41:13;;;;;;;5.85;1.50;;;;;;;3.76;100.00;68800.22;5052780;28;20059;-49
2024/02/23 05:43:41;;;;;;;;;;;;;;;3.74;100.00;68798.50;5050341;28;20400;-49
2024/02/23 05:46:11;;;;;;;7.35;1.80;;;;;;;3.73;100.00;68797.91;5048164;28;20323;-51
2024/02/23 05:48:41;;;;;;;9.05;1.60;;;;;;;3.75;100.00;68799.06;5049065;28;20480;-51
2024/02/23 05:51:09;;;;;;;8.20;1.85;;;;;;;3.78;100.00;68802.56;5049051;28;20562;-52
2024/02/23 05:53:37;;;;;;;6.85;2.03;;;;;;;3.78;100.00;68805.72;5049811;28;20049;-49
2024/02/23 05:56:06;;;;;;;6.35;1.77;;;;;;;3.82;100.00;68812.38;5051723;28;20073;-54
2024/02/23 05:58:36;;;;;;;7.38;1.70;;;;;;;3.83;100.00;68808.94;5049922;28;20056;-52
2024/02/23 06:01:04;;;;;;;5.78;1.80;;;;;;;3.82;100.00;68807.78;5050546;28;20427;-51
2024/02/23 06:03:32;;;;;;;6.57;1.48;;;;;;;3.84;100.00;68815.25;5051043;28;20441;-49
2024/02/23 06:06:02;;;;;;;8.63;1.80;;;;;;;3.86;100.00;68817.00;5048455;28;20049;-48
2024/02/23 06:08:30;;;;;;;10.13;2.60;;;;;;;3.84;100.00;68809.50;5049568;28;20049;-49
2024/02/23 06:10:59;;;;;;;4.38;1.73;;;;;;;3.89;100.00;68812.75;5048382;28;20128;-51
2024/02/23 06:13:28;;;;;;;6.68;1.52;;;;;;;3.88;100.00;68819.31;5049348;28;20044;-49
2024/02/23 06:15:56;;;;;;;6.40;1.83;;;;;;;3.87;100.00;68818.75;5049076;28;20049;-51
2024/02/23 06:18:25;;;;;;;8.80;2.22;;;;;;;3.90;100.00;68813.91;5049456;28;20041;-50
2024/02/23 06:20:53;;;;;;;5.00;1.50;;;;;;;3.93;100.00;68819.38;5048925;28;20037;-49
2024/02/23 06:23:23;;;;;;;4.82;1.35;;;;;;;3.95;100.00;68821.69;5049703;28;20546;-51
2024/02/23 06:25:51;;;;;;;7.18;2.13;;;;;;;3.95;100.00;68824.84;5052607;28;20045;-51
2024/02/23 06:28:19;;;;;;;7.38;1.85;;;;;;;4.00;100.00;68828.09;5052711;28;20053;-49
2024/02/23 06:30:48;;;;;;;5.97;1.42;;;;;;;3.98;100.00;68827.75;5052616;28;20071;-51
2024/02/23 06:33:16;;;;;;;9.70;1.50;;;;;;;3.97;100.00;68824.59;5052995;28;20043;-51
2024/02/23 06:35:44;;;;;;;9.15;1.75;;;;;;;3.98;100.00;68828.34;5050853;28;20056;-50
2024/02/23 06:38:13;;;;;;;6.95;1.33;;;;;;;4.01;100.00;68829.25;5049032;28;20041;-52
2024/02/23 06:40:42;;;;;;;9.80;1.70;;;;;;;4.03;100.00;68831.00;5050268;28;20041;-48
2024/02/23 06:43:19;;;;;;;9.68;1.70;;;;;;;4.01;100.00;68828.69;5050517;28;20044;-50
2024/02/23 06:45:50;;;;;;;5.82;1.40;;;;;;;3.99;100.00;68824.34;5049080;28;20079;-48
2024/02/23 06:48:19;;;;;;;3.47;1.27;;;;;;;4.01;100.00;68828.69;5051695;28;20458;-48
2024/02/23 06:50:47;;;;;;;7.18;1.20;;;;;;;4.07;100.00;68840.78;5056564;28;20063;-48
2024/02/23 06:53:16;;;;;;;8.00;1.58;;;;;;;4.07;100.00;68838.22;5056372;28;20051;-48
2024/02/23 06:55:45;;;;;;;4.22;1.35;;;;;;;4.10;100.00;68841.13;5056568;28;20123;-50
2024/02/23 06:58:14;;;;;;;10.10;1.90;;;;;;;4.11;100.00;68839.72;5056595;28;20432;-48
2024/02/23 07:00:45;;;;;;;12.65;1.60;;;;;;;4.16;100.00;68842.91;5052519;28;20041;-51
2024/02/23 07:03:14;;;;;;;7.63;1.60;;;;;;;4.18;100.00;68850.41;5052715;28;20077;-49
2024/02/23 07:05:45;;;;;;;4.07;1.25;;;;;;;4.19;100.00;68849.56;5052676;28;20530;-47
2024/02/23 07:08:13;;;;;;;4.82;1.40;;;;;;;4.25;100.00;68853.38;5052536;28;20045;-50
2024/02/23 07:10:42;;;;;;;10.02;1.63;;;;;;;4.25;100.00;68855.94;5052210;28;20048;-48
2024/02/23 07:13:12;;;;;;;7.22;1.23;;;;;;;4.28;100.00;68859.44;5054611;28;20057;-47
2024/02/23 07:15:40;;;;;;;8.98;1.30;;;;;;;4.33;100.00;68860.06;5051227;28;20144;-50
2024/02/23 07:18:09;;;;;;;9.50;1.60;;;;;;;4.33;100.00;68867.81;5052605;28;20095;-49
2024/02/23 07:20:37;;;;;;;7.25;1.42;;;;;;;4.38;100.00;68873.63;5052819;28;20049;-50
2024/02/23 07:23:06;;;;;;;5.35;1.17;;;;;;;4.37;100.00;68866.72;5053427;28;20047;-49
2024/02/23 07:25:34;;;;;;;10.95;1.92;;;;;;;4.37;100.00;68875.03;5052084;28;20045;-52
2024/02/23 07:28:02;;;;;;;9.10;1.25;;;;;;;4.42;100.00;68877.69;5052407;28;20053;-52
2024/02/23 07:30:32;;;;;;;8.45;1.27;;;;;;;4.43;100.00;68878.28;5054878;28;20647;-50
2024/02/23 07:33:00;;;;;;;5.00;1.40;;;;;;;4.45;100.00;68880.59;5052397;28;20622;-51
2024/02/23 07:35:28;;;;;;;7.50;1.55;;;;;;;4.49;100.00;68883.25;5052621;28;20052;-53
2024/02/23 07:37:57;;;;;;;8.07;1.38;;;;;;;4.53;100.00;68889.91;5051627;28;20045;-51
2024/02/23 07:40:26;;;;;;;8.82;1.45;;;;;;;4.56;100.00;68891.38;5053047;28;20099;-48
2024/02/23 07:42:54;;;;;;;7.72;1.30;;;;;;;4.61;100.00;68899.19;5054818;28;20049;-51
2024/02/23 07:45:26;;;;;;;6.10;1.17;;;;;;;4.61;100.00;68898.59;5052455;28;20079;-51
2024/02/23 07:47:55;;;;;;;5.32;1.92;;;;;;;4.65;100.00;68898.06;5054098;28;20055;-49
2024/02/23 07:50:24;;;;;;;7.32;2.05;;;;;;;4.67;100.00;68906.16;5055470;28;20041;-51
2024/02/23 07:52:52;;;;;;;5.78;1.23;;;;;;;4.66;100.00;68901.81;5055742;28;20548;-50
2024/02/23 07:55:20;;;;;;;6.30;1.30;;;;;;;4.68;100.00;68907.31;5055376;28;20059;-48
2024/02/23 07:57:48;;;;;;;7.03;1.23;;;;;;;4.73;100.00;68907.34;5053913;28;20037;-48
2024/02/23 08:00:17;;;;;;;8.55;1.58;;;;;;;4.73;100.00;68909.94;5051162;28;20045;-48
2024/02/23 08:02:45;;;;;;;7.63;1.25;;;;;;;4.75;100.00;68912.28;5054364;28;20055;-48
2024/02/23 08:05:15;;;;;;;11.27;1.52;;;;;;;4.76;100.00;68916.03;5052252;28;20459;-47
2024/02/23 08:07:43;;;;;;;7.20;1.23;;;;;;;4.79;100.00;68916.34;5051633;28;20047;-48
2024/02/23 08:10:12;;;;;;;5.57;1.10;;;;;;;4.80;100.00;68920.09;5051753;28;20045;-50
2024/02/23 08:12:41;;;;;;;6.47;1.33;;;;;;;4.90;100.00;68926.53;5050380;28;20047;-50
2024/02/23 08:15:11;;;;;;;7.43;1.20;;;;;;;4.91;100.00;68927.69;5050903;28;20076;-47
2024/02/23 08:17:39;;;;;;;8.35;1.55;;;;;;;4.97;100.00;68939.84;5054423;28;20052;-47
2024/02/23 08:20:08;;;;;;;8.35;1.55;;;;;;;5.01;100.00;68938.75;5053879;28;20048;-48
2024/02/23 08:22:38;;;;;;;6.97;1.50;;;;;;;5.02;100.00;68943.06;5051269;28;20043;-47
2024/02/23 08:25:07;;;;;;;7.07;1.15;;;;;;;5.05;100.00;68945.97;5051248;28;20110;-48
2024/02/23 08:27:36;;;;;;;7.65;1.45;;;;;;;5.04;100.00;68942.22;5050624;28;20103;-47
2024/02/23 08:30:06;;;;;;;7.15;1.45;;;;;;;5.10;100.00;68951.19;5050595;28;20443;-52
2024/02/23 08:32:34;;;;;;;7.57;1.30;;;;;;;5.11;100.00;68952.34;5050801;28;20127;-53
2024/02/23 08:35:03;;;;;;;7.00;2.35;;;;;;;5.16;100.00;68958.75;5054603;28;20045;-50
2024/02/23 08:37:31;;;;;;;7.43;1.55;;;;;;;5.17;100.00;68961.94;5054778;28;20103;-49
2024/02/23 08:40:03;;;;;;;7.10;1.33;;;;;;;5.24;100.00;68968.03;5054670;28;20045;-51
2024/02/23 08:42:31;;;;;;;7.50;1.50;;;;;;;5.30;100.00;68973.84;5054469;28;20033;-46
2024/02/23 08:45:02;;;;;;;6.13;1.33;;;;;;;5.34;100.00;68981.09;5054672;28;20071;-51
2024/02/23 08:47:32;;;;;;;5.88;1.33;;;;;;;5.38;100.00;68983.16;5054450;28;20044;-50
2024/02/23 08:50:01;;;;;;;5.03;1.27;;;;;;;5.42;100.00;68987.81;5052710;28;20065;-49
2024/02/23 08:52:29;;;;;;;8.27;1.23;;;;;;;5.46;100.00;68989.84;5050672;28;20095;-51
2024/02/23 08:54:57;;;;;;;5.30;1.05;;;;;;;5.61;100.00;69009.31;5050120;28;20120;-49
2024/02/23 08:57:27;;;;;;;4.35;1.17;;;;;;;5.74;100.00;69023.84;5049993;28;20381;-49
2024/02/23 08:59:57;;;;;;;7.43;1.10;;;;;;;5.88;100.00;69036.94;5050140;28;20071;-50
2024/02/23 09:02:25;;;;;;;7.10;1.35;;;;;;;5.89;100.00;69046.47;5050677;28;20492;-51
2024/02/23 09:04:53;;;;;;;5.60;1.20;;;;;;;5.91;100.00;69043.59;5050599;28;20052;-50
2024/02/23 09:07:22;;;;;;;9.10;1.40;;;;;;;5.95;100.00;69052.28;5049834;28;20056;-51
2024/02/23 09:09:54;;;;;;;7.97;1.55;;;;;;;5.91;100.00;69043.03;5053906;28;20560;-50
2024/02/23 09:12:22;;;;;;;6.88;1.30;;;;;;;5.92;100.00;69044.19;5052149;28;20159;-50
2024/02/23 09:14:51;;;;;;;5.80;1.23;;;;;;;5.88;100.00;69036.94;5049985;28;20057;-51
2024/02/23 09:17:20;;;;;;;7.82;1.45;;;;;;;5.87;100.00;69041.53;5050518;28;20077;-51
2024/02/23 09:19:48;;;;;;;9.30;1.83;;;;;;;5.94;100.00;69043.91;5050546;28;20045;-53
2024/02/23 09:22:17;;;;;;;6.63;1.00;;;;;;;5.93;100.00;69045.94;5049683;28;20068;-49
2024/02/23 09:24:45;;;;;;;5.72;1.20;;;;;;;5.94;100.00;69046.50;5053950;28;20045;-51
2024/02/23 09:27:13;;;;;;;6.57;1.27;;;;;;;5.98;100.00;69053.75;5053756;28;20412;-51
2024/02/23 09:29:41;;;;;;;4.35;1.10;;;;;;;5.99;100.00;69049.19;5051410;28;20044;-51
2024/02/23 09:32:11;;;;;;;6.35;1.58;;;;;;;5.99;100.00;69057.53;5050090;28;21803;-48
2024/02/23 09:34:42;;;;;;;10.05;1.65;;;;;;;6.01;100.00;69056.66;5049948;28;20079;-48
2024/02/23 09:37:11;;;;;;;6.13;1.27;;;;;;;6.01;100.00;69048.91;5049813;28;20056;-52
2024/02/23 09:39:39;;;;;;;8.13;1.63;;;;;;;5.99;100.00;69054.94;5052939;28;20071;-53
2024/02/23 09:42:11;;;;;;;4.65;1.65;;;;;;;5.95;100.00;69049.69;5049021;28;20048;-49
2024/02/23 09:44:40;;;;;;;7.25;1.17;;;;;;;5.91;100.00;69048.78;5050081;28;20136;-49
2024/02/23 09:47:11;;;;;;;8.18;1.52;;;;;;;5.91;100.00;69046.19;5052173;28;20040;-50
2024/02/23 09:49:40;;;;;;;6.68;1.33;;;;;;;5.91;100.00;69043.03;5053072;28;20048;-50
2024/02/23 09:52:09;;;;;;;9.02;1.20;;;;;;;5.92;100.00;69044.75;5053204;28;20045;-50
2024/02/23 09:54:39;;;;;;;8.95;1.35;;;;;;;5.96;100.00;69050.84;5053264;28;20056;-52
2024/02/23 09:57:08;;;;;;;8.48;1.42;;;;;;;5.98;100.00;69050.59;5053194;28;20102;-51
2024/02/23 09:59:37;;;;;;;6.47;1.35;;;;;;;6.04;100.00;69057.56;5051762;28;20051;-52
2024/02/23 10:02:09;;;;;;;6.63;1.20;;;;;;;6.09;100.00;69063.38;5053152;28;20037;-51
2024/02/23 10:04:40;;;;;;;5.32;1.13;;;;;;;6.08;100.00;69059.63;5052928;28;20057;-52
2024/02/23 10:07:08;;;;;;;5.80;1.58;;;;;;;6.03;100.00;69057.00;5052850;28;20047;-52
2024/02/23 10:09:37;;;;;;;5.70;1.25;;;;;;;5.99;100.00;69052.34;5052923;28;20443;-50
2024/02/23 10:12:06;;;;;;;5.43;1.35;;;;;;;6.02;100.00;69055.81;5048727;28;20056;-47
2024/02/23 10:14:35;;;;;;;7.70;1.08;;;;;;;6.09;100.00;69069.16;5049634;28;20526;-51
2024/02/23 10:17:03;;;;;;;7.50;1.35;;;;;;;6.07;100.00;69059.06;5048601;28;20080;-49
2024/02/23 10:19:32;;;;;;;6.60;1.40;;;;;;;6.09;100.00;69063.97;5049217;28;20053;-48
2024/02/23 10:22:02;;;;;;;5.72;1.17;;;;;;;6.11;100.00;69070.91;5048485;28;20595;-49
2024/02/23 10:24:30;;;;;;;5.88;1.33;;;;;;;6.11;100.00;69065.13;5049373;28;20047;-48
2024/02/23 10:27:02;;;;;;;8.68;1.50;;;;;;;6.09;100.00;69061.38;5048008;28;20114;-49
2024/02/23 10:29:31;;;;;;;5.97;1.45;;;;;;;6.09;100.00;69060.78;5049880;28;20049;-48
2024/02/23 10:32:03;;;;;;;9.05;2.00;;;;;;;6.13;100.00;69070.63;5052671;28;20068;-47
2024/02/23 10:34:32;;;;;;;8.02;1.60;;;;;;;6.08;100.00;69062.81;5049099;28;20053;-49
2024/02/23 10:37:05;;;;;;;6.68;1.67;;;;;;;6.11;100.00;69065.72;5048167;28;20048;-53
2024/02/23 10:39:36;;;;;;;;;;;;;;;6.06;100.00;69063.06;5049046;28;20064;-59
2024/02/23 10:42:05;;;;;;;4.57;1.42;;;;;;;6.07;100.00;69061.66;5052235;28;19921;-60
2024/02/23 10:44:34;;;;;;;5.97;1.27;;;;;;;5.99;100.00;69049.19;5052963;28;20049;-60
2024/02/23 10:47:03;;;;;;;4.88;1.20;;;;;;;6.01;100.00;69059.25;5053167;28;20396;-60
2024/02/23 10:49:32;;;;;;;5.47;1.25;;;;;;;5.97;100.00;69047.41;5052875;28;20053;-60
2024/02/23 10:52:03;;;;;;;7.07;1.10;;;;;;;5.96;100.00;69050.84;5051921;28;20072;-60
2024/02/23 10:54:32;;;;;;;2.78;0.80;;;;;;;6.00;100.00;69052.91;5052350;28;20511;-60
2024/02/23 10:57:00;;;;;;;4.00;0.82;;;;;;;6.05;100.00;69061.31;5052101;28;20045;-60
2024/02/23 10:59:28;;;;;;;3.03;0.85;;;;;;;6.14;100.00;69066.03;5052641;28;20045;-60
2024/02/23 11:01:59;;;;;;;3.20;0.88;;;;;;;6.15;100.00;69074.97;5051783;28;20043;-60
2024/02/23 11:04:28;;;;;;;3.53;1.10;;;;;;;6.16;100.00;69071.53;5051996;28;20172;-60
2024/02/23 11:06:58;;;;;;;6.78;0.80;;;;;;;6.21;100.00;69076.75;5053037;28;20057;-60
2024/02/23 11:09:29;;;;;;;3.78;0.90;;;;;;;6.19;100.00;69080.22;5053107;28;20106;-60
2024/02/23 11:11:58;;;;;;;3.50;0.85;;;;;;;6.20;100.00;69076.19;5052839;28;20044;-60
2024/02/23 11:14:32;;;;;;;6.13;0.90;;;;;;;6.26;100.00;69085.19;5051365;28;20059;-60
2024/02/23 11:17:04;;;;;;;3.38;1.05;;;;;;;6.22;100.00;69075.91;5051607;28;20053;-60
2024/02/23 11:19:36;;;;;;;3.60;0.90;;;;;;;6.25;100.00;69081.41;5052278;28;20040;-60
2024/02/23 11:22:05;;;;;;;;;;;;;;;6.25;100.00;69076.22;5051998;28;20049;-60
2024/02/23 11:24:45;;;;;;;4.05;1.00;;;;;;;6.28;100.00;69084.31;5051305;28;19925;-60
2024/02/23 11:27:17;;;;;;;3.60;1.15;;;;;;;6.31;100.00;69088.38;5051675;28;20049;-60
2024/02/23 11:29:47;;;;;;;2.22;0.80;;;;;;;6.34;100.00;69094.47;5052479;28;20064;-59
2024/02/23 11:32:15;;;;;;;2.85;0.90;;;;;;;6.38;100.00;69098.53;5051771;28;20063;-60
2024/02/23 11:34:56;;;;;;;3.00;0.77;;;;;;;6.39;100.00;69097.13;5053245;28;20128;-60
2024/02/23 11:37:24;;;;;;;6.15;1.10;;;;;;;6.39;100.00;69097.72;5054161;28;20053;-60
2024/02/23 11:39:54;;;;;;;6.10;1.25;;;;;;;6.39;100.00;69094.53;5054194;28;20044;-61
2024/02/23 11:42:24;;;;;;;4.75;1.13;;;;;;;6.41;100.00;69099.44;5056087;28;20491;-60